createdAt,value
2022-08-17T00:00:42.830Z,13.73
2022-08-17T00:03:10.738Z,15.00
2022-08-17T00:05:42.452Z,15.00
2022-08-17T00:08:10.681Z,13.67
2022-08-17T00:10:39.544Z,15.30
2022-08-17T00:13:10.052Z,14.10
2022-08-17T00:15:38.032Z,14.67
2022-08-17T00:19:06.565Z,16.50
2022-08-17T00:20:56.468Z,18.77
2022-08-17T00:23:25.328Z,17.43
2022-08-17T00:25:54.115Z,16.77
2022-08-17T00:28:22.459Z,19.37
2022-08-17T00:30:53.156Z,18.23
2022-08-17T00:33:26.511Z,19.57
2022-08-17T00:35:56.405Z,19.07
2022-08-17T00:38:25.342Z,20.40
2022-08-17T00:40:55.971Z,20.83
2022-08-17T00:43:31.717Z,20.27
2022-08-17T00:46:01.188Z,20.17
2022-08-17T00:48:31.631Z,20.00
2022-08-17T00:51:04.188Z,20.20
2022-08-17T00:53:34.642Z,22.03
2022-08-17T00:56:07.048Z,20.30
2022-08-17T00:58:36.854Z,19.63
2022-08-17T01:01:06.174Z,19.97
2022-08-17T01:03:37.892Z,19.43
2022-08-17T01:06:07.529Z,19.73
2022-08-17T01:08:37.036Z,19.93
2022-08-17T01:11:06.173Z,21.90
2022-08-17T01:13:41.078Z,20.30
2022-08-17T01:16:16.832Z,21.47
2022-08-17T01:18:49.943Z,21.60
2022-08-17T01:21:27.734Z,20.20
2022-08-17T01:23:57.330Z,21.10
2022-08-17T01:26:25.380Z,21.60
2022-08-17T01:28:55.937Z,21.60
2022-08-17T01:31:28.651Z,21.80
2022-08-17T01:33:58.606Z,21.37
2022-08-17T01:36:28.600Z,22.67
2022-08-17T01:38:57.914Z,23.27
2022-08-17T01:41:25.849Z,21.17
2022-08-17T01:43:58.228Z,22.23
2022-08-17T01:46:33.390Z,22.27
2022-08-17T01:49:02.031Z,23.47
2022-08-17T01:51:33.249Z,23.40
2022-08-17T01:54:06.878Z,23.27
2022-08-17T01:56:37.659Z,22.47
2022-08-17T01:59:06.351Z,21.67
2022-08-17T02:01:36.117Z,21.67
2022-08-17T02:04:04.647Z,22.67
2022-08-17T02:06:44.956Z,21.70
2022-08-17T02:09:16.795Z,21.53
2022-08-17T02:11:46.409Z,20.87
2022-08-17T02:14:15.261Z,21.90
2022-08-17T02:16:43.691Z,22.80
2022-08-17T02:19:14.365Z,22.80
2022-08-17T02:21:43.757Z,22.27
2022-08-17T02:24:16.579Z,22.83
2022-08-17T02:26:46.239Z,23.17
2022-08-17T02:29:15.747Z,23.57
2022-08-17T02:31:44.652Z,24.70
2022-08-17T02:34:12.962Z,24.47
2022-08-17T02:36:41.399Z,23.00
2022-08-17T02:39:12.179Z,24.23
2022-08-17T02:41:41.852Z,24.77
2022-08-17T02:44:09.794Z,24.57
2022-08-17T02:46:38.664Z,24.17
2022-08-17T02:49:06.565Z,23.00
2022-08-17T02:51:35.196Z,23.03
2022-08-17T02:54:39.170Z,23.67
2022-08-17T02:56:52.830Z,24.80
2022-08-17T02:59:20.720Z,24.70
2022-08-17T03:01:48.731Z,24.63
2022-08-17T03:04:16.749Z,24.80
2022-08-17T03:06:44.623Z,25.03
2022-08-17T03:09:13.128Z,25.10
2022-08-17T03:11:41.028Z,25.37
2022-08-17T03:14:10.437Z,25.27
2022-08-17T03:16:38.372Z,26.70
2022-08-17T03:19:07.211Z,25.03
2022-08-17T03:21:35.176Z,26.30
2022-08-17T03:24:08.800Z,26.57
2022-08-17T03:26:37.083Z,24.47
2022-08-17T03:29:05.016Z,25.20
2022-08-17T03:31:34.194Z,25.57
2022-08-17T03:34:05.083Z,27.17
2022-08-17T03:36:35.905Z,27.03
2022-08-17T03:39:05.129Z,26.43
2022-08-17T03:41:33.509Z,27.07
2022-08-17T03:44:01.506Z,25.73
2022-08-17T03:46:47.205Z,24.40
2022-08-17T03:49:33.963Z,26.63
2022-08-17T03:52:19.465Z,25.73
2022-08-17T03:55:04.775Z,24.10
2022-08-17T03:57:33.380Z,25.47
2022-08-17T04:00:01.379Z,23.40
2022-08-17T04:02:40.370Z,24.33
2022-08-17T04:05:10.127Z,23.10
2022-08-17T04:07:38.037Z,24.97
2022-08-17T04:10:06.822Z,24.07
2022-08-17T04:12:45.950Z,22.07
2022-08-17T04:15:14.196Z,23.17
2022-08-17T04:17:44.136Z,25.90
2022-08-17T04:20:15.008Z,21.63
2022-08-17T04:22:57.275Z,26.07
2022-08-17T04:25:25.560Z,25.43
2022-08-17T04:27:53.447Z,26.77
2022-08-17T04:30:21.848Z,29.20
2022-08-17T04:33:06.271Z,24.37
2022-08-17T04:35:40.234Z,30.63
2022-08-17T04:38:10.070Z,31.10
2022-08-17T04:40:55.673Z,32.60
2022-08-17T04:43:26.367Z,32.33
2022-08-17T04:45:57.360Z,33.20
2022-08-17T04:48:34.725Z,32.37
2022-08-17T04:51:06.896Z,33.57
2022-08-17T04:53:34.787Z,32.67
2022-08-17T04:56:02.826Z,33.33
2022-08-17T04:58:30.737Z,35.80
2022-08-17T05:00:58.697Z,32.10
2022-08-17T05:03:27.329Z,30.50
2022-08-17T05:05:55.214Z,33.43
2022-08-17T05:08:24.599Z,35.23
2022-08-17T05:10:52.618Z,37.30
2022-08-17T05:13:23.376Z,30.90
2022-08-17T05:15:55.824Z,31.83
2022-08-17T05:18:24.691Z,33.90
2022-08-17T05:20:53.338Z,41.30
2022-08-17T05:23:23.198Z,33.30
2022-08-17T05:25:55.551Z,32.53
2022-08-17T05:28:27.385Z,32.63
2022-08-17T05:30:57.052Z,32.37
2022-08-17T05:33:27.507Z,33.37
2022-08-17T05:35:57.663Z,33.33
2022-08-17T05:38:27.348Z,30.10
2022-08-17T05:40:57.883Z,33.23
2022-08-17T05:43:27.995Z,34.23
2022-08-17T05:46:03.133Z,34.97
2022-08-17T05:48:40.066Z,36.80
2022-08-17T05:51:34.841Z,33.70
2022-08-17T05:54:22.721Z,36.40
2022-08-17T05:57:07.497Z,37.27
2022-08-17T05:59:44.409Z,40.07
2022-08-17T06:02:21.897Z,41.50
2022-08-17T06:05:06.444Z,37.00
2022-08-17T06:07:46.743Z,36.23
2022-08-17T06:10:24.176Z,37.90
2022-08-17T06:13:02.232Z,38.23
2022-08-17T06:15:37.431Z,35.93
2022-08-17T06:18:09.007Z,38.70
2022-08-17T06:20:50.004Z,37.97
2022-08-17T06:23:26.542Z,39.63
2022-08-17T06:25:58.615Z,39.53
2022-08-17T06:28:36.303Z,34.70
2022-08-17T06:31:11.139Z,34.93
2022-08-17T06:33:41.058Z,35.03
2022-08-17T06:36:23.456Z,36.47
2022-08-17T06:39:00.604Z,38.27
2022-08-17T06:41:42.795Z,35.30
2022-08-17T06:44:44.766Z,36.60
2022-08-17T06:47:13.491Z,32.23
2022-08-17T06:49:54.616Z,29.20
2022-08-17T06:52:46.552Z,33.20
2022-08-17T06:55:22.290Z,34.87
2022-08-17T06:57:58.527Z,35.33
2022-08-17T07:00:33.473Z,31.87
2022-08-17T07:03:11.108Z,34.30
2022-08-17T07:05:43.699Z,29.40
2022-08-17T07:08:19.159Z,34.03
2022-08-17T07:10:51.939Z,34.63
2022-08-17T07:13:38.753Z,33.73
2022-08-17T07:16:17.064Z,34.93
2022-08-17T07:18:45.823Z,34.63
2022-08-17T07:21:26.952Z,30.40
2022-08-17T07:24:30.304Z,33.27
2022-08-17T07:27:07.927Z,29.23
2022-08-17T07:29:40.847Z,26.73
2022-08-17T07:32:12.251Z,30.40
2022-08-17T07:35:04.545Z,27.83
2022-08-17T07:37:34.211Z,27.13
2022-08-17T07:40:33.449Z,26.03
2022-08-17T07:43:04.961Z,27.00
2022-08-17T07:45:52.427Z,24.80
2022-08-17T07:48:25.862Z,24.13
2022-08-17T07:50:53.896Z,23.90
2022-08-17T07:53:24.190Z,26.37
2022-08-17T07:55:54.243Z,25.60
2022-08-17T07:58:24.440Z,22.80
2022-08-17T08:01:07.629Z,26.50
2022-08-17T08:03:42.498Z,24.57
2022-08-17T08:06:21.183Z,22.93
2022-08-17T08:08:52.945Z,22.77
2022-08-17T08:11:32.078Z,21.43
2022-08-17T08:14:28.585Z,23.50
2022-08-17T08:16:59.988Z,23.60
2022-08-17T08:19:31.318Z,21.47
2022-08-17T08:22:07.592Z,19.87
2022-08-17T08:25:07.208Z,20.83
2022-08-17T08:27:44.303Z,20.57
2022-08-17T08:30:16.635Z,21.20
2022-08-17T08:33:10.128Z,22.40
2022-08-17T08:35:47.670Z,20.53
2022-08-17T08:38:23.481Z,22.00
2022-08-17T08:41:06.330Z,20.97
2022-08-17T08:43:40.806Z,20.90
2022-08-17T08:46:18.447Z,19.47
2022-08-17T08:49:11.894Z,19.73
2022-08-17T08:51:51.728Z,20.10
2022-08-17T08:54:31.610Z,18.10
2022-08-17T08:57:25.619Z,19.30
2022-08-17T09:00:12.715Z,19.80
2022-08-17T09:03:09.776Z,19.63
2022-08-17T09:05:53.364Z,19.17
2022-08-17T09:08:32.214Z,19.00
2022-08-17T09:11:04.296Z,19.23
2022-08-17T09:13:41.858Z,18.63
2022-08-17T09:16:16.353Z,15.80
2022-08-17T09:18:59.866Z,15.90
2022-08-17T09:21:38.070Z,15.63
2022-08-17T09:24:22.760Z,16.50
2022-08-17T09:26:55.780Z,16.07
2022-08-17T09:29:26.338Z,16.87
2022-08-17T09:31:58.048Z,16.60
2022-08-17T09:34:33.450Z,16.20
2022-08-17T09:37:16.780Z,18.23
2022-08-17T09:39:52.361Z,22.93
2022-08-17T09:42:27.040Z,22.80
2022-08-17T09:45:03.939Z,18.90
2022-08-17T09:47:45.326Z,24.43
2022-08-17T09:51:05.300Z,28.27
2022-08-17T09:53:10.309Z,28.73
2022-08-17T09:56:07.033Z,30.33
2022-08-17T09:58:44.008Z,29.27
2022-08-17T10:01:31.508Z,31.67
2022-08-17T10:04:14.106Z,29.90
2022-08-17T10:06:53.248Z,31.40
2022-08-17T10:09:36.818Z,29.40
2022-08-17T10:12:20.252Z,30.47
2022-08-17T10:15:09.460Z,31.80
2022-08-17T10:17:45.807Z,33.23
2022-08-17T10:20:18.759Z,28.40
2022-08-17T10:23:09.121Z,26.93
2022-08-17T10:26:07.675Z,29.58
2022-08-17T10:28:45.691Z,32.43
2022-08-17T10:31:40.509Z,33.70
2022-08-17T10:34:40.360Z,35.57
2022-08-17T10:37:34.044Z,32.97
2022-08-17T10:40:23.486Z,29.40
2022-08-17T10:42:58.915Z,28.93
2022-08-17T10:45:32.529Z,33.87
2022-08-17T10:48:06.213Z,30.83
2022-08-17T10:50:59.556Z,27.53
2022-08-17T10:54:01.563Z,29.30
2022-08-17T10:56:48.045Z,24.67
2022-08-17T10:59:51.293Z,29.23
2022-08-17T11:02:26.039Z,31.47
2022-08-17T11:05:29.986Z,29.23
2022-08-17T11:08:18.983Z,23.23
2022-08-17T11:11:02.438Z,28.13
2022-08-17T11:13:39.903Z,30.03
2022-08-17T11:16:26.952Z,28.60
2022-08-17T11:19:36.592Z,31.73
2022-08-17T11:22:33.951Z,29.97
2022-08-17T11:25:15.538Z,27.23
2022-08-17T11:27:45.024Z,26.37
2022-08-17T11:30:15.558Z,29.17
2022-08-17T11:32:52.956Z,24.83
2022-08-17T11:35:34.667Z,31.00
2022-08-17T11:38:16.384Z,24.47
2022-08-17T11:41:03.383Z,33.57
2022-08-17T11:43:57.124Z,32.47
2022-08-17T11:46:51.926Z,33.33
2022-08-17T11:49:52.928Z,27.50
2022-08-17T11:52:39.875Z,30.83
2022-08-17T11:55:34.125Z,25.27
2022-08-17T11:58:07.314Z,21.83
2022-08-17T12:00:54.671Z,24.40
2022-08-17T12:03:56.013Z,31.90
2022-08-17T12:06:44.980Z,32.47
2022-08-17T12:09:17.939Z,31.03
2022-08-17T12:11:55.433Z,30.27
2022-08-17T12:15:12.386Z,29.03
2022-08-17T12:17:52.275Z,31.73
2022-08-17T12:20:25.423Z,30.00
2022-08-17T12:23:04.094Z,32.77
2022-08-17T12:25:37.336Z,30.97
2022-08-17T12:28:20.034Z,32.63
2022-08-17T12:30:51.960Z,30.70
2022-08-17T12:33:25.389Z,36.10
2022-08-17T12:36:02.887Z,35.97
2022-08-17T12:38:34.611Z,35.57
2022-08-17T12:41:25.233Z,33.43
2022-08-17T12:44:01.460Z,33.37
2022-08-17T12:46:30.194Z,27.10
2022-08-17T12:49:13.498Z,26.01
2022-08-17T12:51:45.088Z,28.83
2022-08-17T12:54:26.150Z,33.27
2022-08-17T12:56:54.667Z,27.27
2022-08-17T12:59:30.330Z,32.53
2022-08-17T13:01:58.897Z,31.20
2022-08-17T13:04:29.730Z,30.60
2022-08-17T13:06:59.921Z,23.07
2022-08-17T13:09:35.554Z,30.53
2022-08-17T13:12:05.097Z,33.70
2022-08-17T13:14:35.198Z,31.17
2022-08-17T13:17:09.737Z,32.17
2022-08-17T13:19:48.921Z,30.37
2022-08-17T13:22:16.844Z,34.07
2022-08-17T13:24:54.212Z,31.60
2022-08-17T13:27:25.003Z,34.80
2022-08-17T13:29:57.197Z,30.63
2022-08-17T13:32:35.834Z,31.13
2022-08-17T13:35:40.541Z,31.43
2022-08-17T13:38:11.885Z,21.70
2022-08-17T13:40:43.711Z,22.40
2022-08-17T13:43:12.060Z,29.00
2022-08-17T13:45:51.799Z,25.90
2022-08-17T13:48:26.770Z,21.80
2022-08-17T13:51:27.970Z,24.73
2022-08-17T13:54:20.409Z,31.90
2022-08-17T13:56:59.228Z,28.00
2022-08-17T13:59:54.585Z,32.07
2022-08-17T14:02:28.306Z,33.47
2022-08-17T14:04:57.790Z,31.53
2022-08-17T14:07:37.164Z,31.57
2022-08-17T14:10:13.113Z,26.63
2022-08-17T14:12:43.641Z,24.80
2022-08-17T14:15:13.383Z,25.03
2022-08-17T14:17:41.839Z,26.17
2022-08-17T14:20:12.880Z,26.80
2022-08-17T14:22:46.317Z,26.20
2022-08-17T14:25:16.319Z,23.60
2022-08-17T14:27:53.422Z,24.27
2022-08-17T14:30:24.255Z,23.13
2022-08-17T14:32:52.978Z,24.37
2022-08-17T14:35:23.765Z,26.23
2022-08-17T14:37:53.695Z,29.30
2022-08-17T14:40:24.542Z,24.50
2022-08-17T14:42:53.931Z,26.77
2022-08-17T14:45:32.370Z,28.87
2022-08-17T14:48:03.898Z,28.07
2022-08-17T14:50:35.166Z,25.73
2022-08-17T14:53:06.248Z,35.43
2022-08-17T14:55:34.980Z,35.13
2022-08-17T14:58:03.866Z,34.27
2022-08-17T15:00:31.819Z,35.67
2022-08-17T15:03:01.153Z,32.27
2022-08-17T15:05:31.707Z,33.87
2022-08-17T15:07:59.815Z,30.67
2022-08-17T15:10:30.232Z,30.43
2022-08-17T15:12:58.454Z,31.53
2022-08-17T15:15:26.931Z,32.47
2022-08-17T15:17:54.938Z,30.43
2022-08-17T15:20:27.498Z,33.67
2022-08-17T15:22:57.054Z,34.63
2022-08-17T15:25:26.545Z,28.90
2022-08-17T15:27:56.419Z,32.40
2022-08-17T15:30:25.638Z,27.60
2022-08-17T15:32:55.056Z,27.40
2022-08-17T15:35:27.406Z,32.57
2022-08-17T15:38:04.533Z,28.23
2022-08-17T15:40:34.951Z,29.77
2022-08-17T15:43:07.472Z,27.23
2022-08-17T15:45:35.636Z,26.43
2022-08-17T15:48:03.785Z,23.67
2022-08-17T15:50:31.956Z,23.70
2022-08-17T15:53:02.122Z,20.47
2022-08-17T15:55:31.651Z,20.87
2022-08-17T15:57:59.824Z,23.13
2022-08-17T16:00:29.593Z,22.60
2022-08-17T16:03:45.965Z,23.73
2022-08-17T16:05:47.866Z,21.37
2022-08-17T16:08:20.692Z,22.33
2022-08-17T16:10:49.640Z,23.80
2022-08-17T16:13:19.778Z,21.90
2022-08-17T16:15:56.609Z,21.80
2022-08-17T16:18:30.852Z,19.37
2022-08-17T16:21:19.277Z,19.50
2022-08-17T16:23:47.396Z,17.90
2022-08-17T16:26:15.970Z,15.70
2022-08-17T16:28:43.863Z,17.70
2022-08-17T16:31:14.283Z,19.07
2022-08-17T16:33:42.849Z,14.67
2022-08-17T16:36:31.084Z,17.07
2022-08-17T16:38:59.307Z,17.23
2022-08-17T16:41:45.352Z,15.13
2022-08-17T16:44:15.392Z,15.30
2022-08-17T16:46:46.070Z,15.17
2022-08-17T16:49:36.009Z,15.87
2022-08-17T16:52:03.840Z,13.70
2022-08-17T16:54:31.827Z,15.53
2022-08-17T16:57:00.123Z,16.70
2022-08-17T16:59:30.925Z,15.37
2022-08-17T17:02:10.812Z,17.53
2022-08-17T17:04:44.193Z,15.63
2022-08-17T17:07:33.692Z,15.13
2022-08-17T17:10:06.151Z,15.90
2022-08-17T17:13:02.939Z,19.90
2022-08-17T17:15:25.811Z,16.13
2022-08-17T17:18:06.090Z,19.33
2022-08-17T17:20:43.684Z,16.73
2022-08-17T17:23:23.609Z,16.80
2022-08-17T17:26:00.156Z,17.00
2022-08-17T17:28:46.207Z,18.53
2022-08-17T17:31:17.844Z,19.87
2022-08-17T17:33:50.845Z,20.67
2022-08-17T17:36:27.145Z,21.90
2022-08-17T17:39:00.560Z,20.90
2022-08-17T17:41:33.776Z,18.37
2022-08-17T17:44:06.174Z,17.00
2022-08-17T17:46:39.158Z,16.40
2022-08-17T17:49:10.480Z,18.10
2022-08-17T17:52:09.453Z,15.50
2022-08-17T17:54:49.541Z,16.80
2022-08-17T17:57:24.581Z,16.20
2022-08-17T18:00:02.093Z,15.77
2022-08-17T18:02:54.618Z,15.70
2022-08-17T18:05:39.112Z,16.13
2022-08-17T18:08:16.914Z,18.57
2022-08-17T18:10:55.655Z,18.03
2022-08-17T18:13:35.365Z,16.30
2022-08-17T18:16:06.725Z,17.93
2022-08-17T18:18:39.700Z,17.60
2022-08-17T18:21:16.271Z,19.27
2022-08-17T18:23:48.816Z,16.33
2022-08-17T18:26:37.524Z,16.80
2022-08-17T18:29:26.346Z,14.57
2022-08-17T18:32:28.553Z,19.50
2022-08-17T18:34:59.751Z,19.07
2022-08-17T18:37:38.095Z,20.20
2022-08-17T18:40:27.697Z,19.30
2022-08-17T18:43:12.696Z,22.83
2022-08-17T18:45:45.655Z,25.87
2022-08-17T18:48:22.546Z,27.77
2022-08-17T18:50:53.504Z,25.77
2022-08-17T18:53:30.240Z,27.23
2022-08-17T18:56:22.300Z,36.63
2022-08-17T18:59:07.150Z,28.90
2022-08-17T19:01:53.211Z,31.80
2022-08-17T19:04:34.646Z,38.33
2022-08-17T19:07:06.403Z,33.13
2022-08-17T19:09:41.104Z,32.67
2022-08-17T19:12:13.232Z,33.67
2022-08-17T19:14:42.195Z,39.63
2022-08-17T19:17:24.266Z,38.63
2022-08-17T19:19:57.520Z,35.67
2022-08-17T19:22:31.268Z,39.40
2022-08-17T19:25:10.397Z,39.93
2022-08-17T19:27:49.106Z,43.20
2022-08-17T19:30:20.207Z,42.03
2022-08-17T19:32:48.241Z,35.90
2022-08-17T19:35:20.053Z,35.60
2022-08-17T19:37:59.478Z,33.10
2022-08-17T19:40:52.281Z,33.27
2022-08-17T19:43:30.457Z,33.97
2022-08-17T19:46:05.913Z,34.73
2022-08-17T19:48:42.717Z,33.53
2022-08-17T19:51:14.629Z,32.33
2022-08-17T19:54:06.894Z,33.83
2022-08-17T19:56:47.090Z,31.90
2022-08-17T19:59:23.509Z,31.03
2022-08-17T20:01:54.874Z,32.80
2022-08-17T20:04:35.561Z,33.43
2022-08-17T20:07:07.416Z,30.97
2022-08-17T20:09:39.948Z,32.67
2022-08-17T20:12:14.207Z,33.50
2022-08-17T20:14:53.368Z,32.30
2022-08-17T20:17:25.950Z,30.53
2022-08-17T20:22:54.310Z,34.87
2022-08-17T20:25:32.218Z,31.80
2022-08-17T20:28:07.162Z,30.43
2022-08-17T20:30:38.842Z,32.40
2022-08-17T20:33:13.230Z,32.47
2022-08-17T20:36:01.143Z,30.07
2022-08-17T20:38:42.414Z,37.07
2022-08-17T20:41:14.418Z,33.27
2022-08-17T20:44:01.603Z,31.60
2022-08-17T20:46:52.479Z,32.83
2022-08-17T20:49:26.931Z,30.17
2022-08-17T20:52:02.369Z,33.73
2022-08-17T20:54:47.821Z,34.13
2022-08-17T20:57:49.111Z,34.67
2022-08-17T21:00:46.601Z,34.13
2022-08-17T21:03:51.845Z,36.50
2022-08-17T21:06:25.407Z,35.83
2022-08-17T21:08:59.492Z,37.53
2022-08-17T21:11:57.211Z,38.23
2022-08-17T21:14:54.121Z,37.47
2022-08-17T21:17:41.802Z,36.90
2022-08-17T21:20:24.072Z,37.97
2022-08-17T21:23:07.662Z,37.87
2022-08-17T21:26:02.792Z,36.30
2022-08-17T21:29:00.292Z,36.50
2022-08-17T21:31:35.262Z,39.47
2022-08-17T21:34:28.358Z,38.73
2022-08-17T21:37:17.711Z,37.60
2022-08-17T21:39:51.754Z,37.03
2022-08-17T21:42:25.254Z,39.37
2022-08-17T21:44:58.891Z,42.13
2022-08-17T21:47:28.811Z,41.17
2022-08-17T21:50:15.995Z,41.77
2022-08-17T21:52:44.409Z,42.33
2022-08-17T21:55:22.441Z,46.17
2022-08-17T21:57:52.950Z,44.83
2022-08-17T22:00:39.117Z,43.90
2022-08-17T22:03:22.467Z,41.80
2022-08-17T22:05:51.796Z,43.07
2022-08-17T22:08:22.375Z,42.37
2022-08-17T22:10:51.959Z,41.40
2022-08-17T22:13:23.219Z,45.33
2022-08-17T22:16:28.428Z,46.40
2022-08-17T22:18:57.846Z,43.53
2022-08-17T22:21:27.672Z,45.07
2022-08-17T22:24:05.769Z,43.33
2022-08-17T22:27:07.845Z,45.40
2022-08-17T22:29:58.077Z,44.43
2022-08-17T22:32:38.260Z,46.77
2022-08-17T22:35:38.579Z,51.73
2022-08-17T22:38:28.584Z,47.20
2022-08-17T22:41:13.484Z,49.23
2022-08-17T22:43:44.670Z,48.17
2022-08-17T22:46:14.910Z,47.87
2022-08-17T22:48:49.017Z,45.63
2022-08-17T22:51:21.561Z,48.70
2022-08-17T22:54:11.411Z,44.87
2022-08-17T22:57:05.250Z,47.87
2022-08-17T22:59:37.879Z,50.30
2022-08-17T23:02:21.600Z,51.97
2022-08-17T23:04:52.325Z,53.37
2022-08-17T23:07:21.162Z,49.20
2022-08-17T23:09:51.955Z,49.57
2022-08-17T23:12:26.229Z,50.07
2022-08-17T23:15:00.530Z,48.30
2022-08-17T23:17:33.910Z,48.10
2022-08-17T23:20:06.310Z,47.13
2022-08-17T23:22:34.539Z,46.87
2022-08-17T23:25:03.877Z,46.67
2022-08-17T23:27:32.290Z,45.83
2022-08-17T23:30:00.198Z,49.97
2022-08-17T23:32:28.521Z,48.13
2022-08-17T23:34:59.066Z,49.17
2022-08-17T23:37:27.522Z,41.37
2022-08-17T23:39:55.443Z,46.93
2022-08-17T23:42:24.808Z,42.47
2022-08-17T23:44:52.696Z,44.07
2022-08-17T23:47:21.195Z,42.10
2022-08-17T23:49:49.044Z,42.13
2022-08-17T23:52:22.942Z,44.73
2022-08-17T23:54:50.816Z,40.63
2022-08-17T23:57:35.877Z,48.10
